createdAt,value
2023-01-02T00:01:04.918Z,7.15
2023-01-02T00:03:34.232Z,8.48
2023-01-02T00:06:05.643Z,8.35
2023-01-02T00:08:33.365Z,8.23
2023-01-02T00:11:00.325Z,8.52
2023-01-02T00:13:27.370Z,7.57
2023-01-02T00:15:54.305Z,8.02
2023-01-02T00:18:21.218Z,8.48
2023-01-02T00:20:48.037Z,8.13
2023-01-02T00:23:14.937Z,7.55
2023-01-02T00:25:42.046Z,7.65
2023-01-02T00:28:08.975Z,7.75
2023-01-02T00:30:38.903Z,7.68
2023-01-02T00:33:08.979Z,7.55
2023-01-02T00:35:38.369Z,8.05
2023-01-02T00:38:06.272Z,7.78
2023-01-02T00:40:33.625Z,7.63
2023-01-02T00:43:01.641Z,8.02
2023-01-02T00:45:28.545Z,7.22
2023-01-02T00:47:55.387Z,7.07
2023-01-02T00:50:22.294Z,8.00
2023-01-02T00:52:49.177Z,7.28
2023-01-02T00:55:17.074Z,7.55
2023-01-02T00:57:43.917Z,6.90
2023-01-02T01:00:11.453Z,7.32
2023-01-02T01:02:38.447Z,6.93
2023-01-02T01:05:05.978Z,7.20
2023-01-02T01:07:32.819Z,7.05
2023-01-02T01:09:59.791Z,7.10
2023-01-02T01:12:26.851Z,6.45
2023-01-02T01:14:53.728Z,6.53
2023-01-02T01:17:20.601Z,6.25
2023-01-02T01:19:47.547Z,6.95
2023-01-02T01:22:14.343Z,6.07
2023-01-02T01:24:41.200Z,6.72
2023-01-02T01:27:07.993Z,6.55
2023-01-02T01:29:34.896Z,6.10
2023-01-02T01:32:02.715Z,6.78
2023-01-02T01:34:29.849Z,6.00
2023-01-02T01:36:56.773Z,6.43
2023-01-02T01:39:23.669Z,6.32
2023-01-02T01:41:50.534Z,6.57
2023-01-02T01:44:52.851Z,6.45
2023-01-02T01:47:25.766Z,6.95
2023-01-02T01:50:04.696Z,6.85
2023-01-02T01:52:35.165Z,7.35
2023-01-02T01:55:31.445Z,7.18
2023-01-02T01:58:02.508Z,6.20
2023-01-02T02:00:30.195Z,6.90
2023-01-02T02:03:04.438Z,6.88
2023-01-02T02:05:32.514Z,6.93
2023-01-02T02:08:17.944Z,6.55
2023-01-02T02:10:45.570Z,7.00
2023-01-02T02:13:13.118Z,6.10
2023-01-02T02:16:07.404Z,7.25
2023-01-02T02:18:51.318Z,7.55
2023-01-02T02:21:43.180Z,7.40
2023-01-02T02:24:53.020Z,7.78
2023-01-02T02:27:46.614Z,7.50
2023-01-02T02:30:51.254Z,7.97
2023-01-02T02:33:38.048Z,8.27
2023-01-02T02:36:14.226Z,8.52
2023-01-02T02:39:06.111Z,8.30
2023-01-02T02:41:51.722Z,8.80
2023-01-02T02:44:56.314Z,8.93
2023-01-02T02:47:35.073Z,9.15
2023-01-02T02:50:12.047Z,9.27
2023-01-02T02:52:58.195Z,9.70
2023-01-02T02:55:43.107Z,9.77
2023-01-02T02:58:10.057Z,9.68
2023-01-02T03:00:36.911Z,9.52
2023-01-02T03:03:18.606Z,9.63
2023-01-02T03:06:01.817Z,9.85
2023-01-02T03:09:03.228Z,8.48
2023-01-02T03:11:40.975Z,9.30
2023-01-02T03:14:20.860Z,4.05
2023-01-02T03:16:54.675Z,1.95
2023-01-02T03:19:50.213Z,2.53
2023-01-02T03:22:34.205Z,2.10
2023-01-02T03:25:03.396Z,2.00
2023-01-02T03:27:34.780Z,1.10
2023-01-02T03:30:05.682Z,1.27
2023-01-02T03:32:37.900Z,1.02
2023-01-02T03:35:10.388Z,1.40
2023-01-02T03:37:46.327Z,1.55
2023-01-02T03:40:22.029Z,1.52
2023-01-02T03:43:07.341Z,1.55
2023-01-02T03:45:40.253Z,1.30
2023-01-02T03:48:40.696Z,1.60
2023-01-02T03:51:08.328Z,1.73
2023-01-02T03:53:38.433Z,1.98
2023-01-02T03:56:32.966Z,1.33
2023-01-02T03:59:13.395Z,1.10
2023-01-02T04:02:13.801Z,1.02
2023-01-02T04:04:53.411Z,1.10
2023-01-02T04:07:44.509Z,0.88
2023-01-02T04:10:14.167Z,1.60
2023-01-02T04:12:45.379Z,1.30
2023-01-02T04:15:13.897Z,1.20
2023-01-02T04:17:57.696Z,1.90
2023-01-02T04:20:30.740Z,1.33
2023-01-02T04:23:09.457Z,1.42
2023-01-02T04:25:52.760Z,1.52
2023-01-02T04:28:32.263Z,1.98
2023-01-02T04:31:47.030Z,2.13
2023-01-02T04:34:16.872Z,3.13
2023-01-02T04:36:44.072Z,1.92
2023-01-02T04:39:11.076Z,1.90
2023-01-02T04:41:39.187Z,2.08
2023-01-02T04:44:06.395Z,1.70
2023-01-02T04:46:33.356Z,1.60
2023-01-02T04:49:00.331Z,1.40
2023-01-02T04:51:27.440Z,1.60
2023-01-02T04:53:54.615Z,2.10
2023-01-02T04:56:21.868Z,1.83
2023-01-02T04:58:49.601Z,1.67
2023-01-02T05:01:18.460Z,2.10
2023-01-02T05:03:47.874Z,1.83
2023-01-02T05:06:15.451Z,1.80
2023-01-02T05:08:43.661Z,2.22
2023-01-02T05:11:16.258Z,2.03
2023-01-02T05:13:43.416Z,2.00
2023-01-02T05:16:11.064Z,1.83
2023-01-02T05:18:38.053Z,1.60
2023-01-02T05:21:31.599Z,2.10
2023-01-02T05:24:02.733Z,1.80
2023-01-02T05:26:33.300Z,1.90
2023-01-02T05:29:01.142Z,2.30
2023-01-02T05:31:28.739Z,1.70
2023-01-02T05:33:57.806Z,1.85
2023-01-02T05:36:26.350Z,1.40
2023-01-02T05:38:53.880Z,2.40
2023-01-02T05:41:21.628Z,2.45
2023-01-02T05:43:48.627Z,2.08
2023-01-02T05:46:20.675Z,2.50
2023-01-02T05:48:47.760Z,3.17
2023-01-02T05:51:16.781Z,2.17
2023-01-02T05:53:44.500Z,1.60
2023-01-02T05:56:14.468Z,2.10
2023-01-02T05:58:43.370Z,2.35
2023-01-02T06:01:15.895Z,2.40
2023-01-02T06:03:50.385Z,1.38
2023-01-02T06:06:19.536Z,2.23
2023-01-02T06:08:46.480Z,1.73
2023-01-02T06:11:13.893Z,1.77
2023-01-02T06:13:42.388Z,2.58
2023-01-02T06:16:10.813Z,1.50
2023-01-02T06:18:38.697Z,1.73
2023-01-02T06:21:10.012Z,1.65
2023-01-02T06:23:37.394Z,1.55
2023-01-02T06:26:16.006Z,1.52
2023-01-02T06:28:43.607Z,1.52
2023-01-02T06:31:13.420Z,2.00
2023-01-02T06:33:40.857Z,1.65
2023-01-02T06:36:10.373Z,1.98
2023-01-02T06:38:37.706Z,2.33
2023-01-02T06:41:05.679Z,2.13
2023-01-02T06:43:33.701Z,2.80
2023-01-02T06:46:02.971Z,2.30
2023-01-02T06:48:32.073Z,2.40
2023-01-02T06:51:02.123Z,2.17
2023-01-02T06:53:29.041Z,3.35
2023-01-02T06:55:57.755Z,3.45
2023-01-02T06:58:28.704Z,4.20
2023-01-02T07:00:55.711Z,4.97
2023-01-02T07:03:22.622Z,5.95
2023-01-02T07:05:49.547Z,4.93
2023-01-02T07:08:16.375Z,6.13
2023-01-02T07:10:45.578Z,7.18
2023-01-02T07:13:16.338Z,7.20
2023-01-02T07:15:43.209Z,8.38
2023-01-02T07:18:10.071Z,8.88
2023-01-02T07:20:36.897Z,9.27
2023-01-02T07:23:04.059Z,9.23
2023-01-02T07:25:30.865Z,10.88
2023-01-02T07:27:59.494Z,11.45
2023-01-02T07:30:26.392Z,12.55
2023-01-02T07:32:53.828Z,12.57
2023-01-02T07:35:20.691Z,14.25
2023-01-02T07:37:47.607Z,12.70
2023-01-02T07:40:14.510Z,15.02
2023-01-02T07:42:41.443Z,14.70
2023-01-02T07:45:09.459Z,14.85
2023-01-02T07:47:36.531Z,13.88
2023-01-02T07:50:03.631Z,15.88
2023-01-02T07:52:30.556Z,15.32
2023-01-02T07:54:57.398Z,16.58
2023-01-02T07:57:24.294Z,16.58
2023-01-02T07:59:51.600Z,16.00
2023-01-02T08:02:18.661Z,16.02
2023-01-02T08:04:45.616Z,16.00
2023-01-02T08:07:12.797Z,14.77
2023-01-02T08:09:39.655Z,15.85
2023-01-02T08:12:06.737Z,14.70
2023-01-02T08:14:33.608Z,14.63
2023-01-02T08:17:00.536Z,15.50
2023-01-02T08:19:27.705Z,14.07
2023-01-02T08:21:54.695Z,13.55
2023-01-02T08:24:21.559Z,13.50
2023-01-02T08:26:48.414Z,11.82
2023-01-02T08:29:15.352Z,12.50
2023-01-02T08:31:44.041Z,11.77
2023-01-02T08:34:14.633Z,11.70
2023-01-02T08:36:42.638Z,11.88
2023-01-02T08:39:09.529Z,10.02
2023-01-02T08:41:38.712Z,11.13
2023-01-02T08:44:06.243Z,9.73
2023-01-02T08:46:40.345Z,9.82
2023-01-02T08:49:10.154Z,9.88
2023-01-02T08:51:36.991Z,9.88
2023-01-02T08:54:04.791Z,9.27
2023-01-02T08:56:33.096Z,9.05
2023-01-02T08:59:02.689Z,9.25
2023-01-02T09:01:31.614Z,8.88
2023-01-02T09:03:59.229Z,9.73
2023-01-02T09:06:27.890Z,9.15
2023-01-02T09:08:57.193Z,9.05
2023-01-02T09:11:31.591Z,8.80
2023-01-02T09:14:00.203Z,9.43
2023-01-02T09:16:28.000Z,8.02
2023-01-02T09:19:00.314Z,7.80
2023-01-02T09:21:29.003Z,7.93
2023-01-02T09:23:55.877Z,7.20
2023-01-02T09:26:22.929Z,6.32
2023-01-02T09:28:49.991Z,5.88
2023-01-02T09:31:18.602Z,5.80
2023-01-02T09:33:46.817Z,6.07
2023-01-02T09:36:16.450Z,5.40
2023-01-02T09:38:43.985Z,5.80
2023-01-02T09:41:22.912Z,5.55
2023-01-02T09:43:58.103Z,5.88
2023-01-02T09:46:50.959Z,6.60
2023-01-02T09:49:24.642Z,7.18
2023-01-02T09:51:52.004Z,6.55
2023-01-02T09:54:30.959Z,6.68
2023-01-02T09:57:16.162Z,6.97
2023-01-02T09:59:45.783Z,7.15
2023-01-02T10:02:33.123Z,6.97
2023-01-02T10:05:18.185Z,6.47
2023-01-02T10:07:50.839Z,6.30
2023-01-02T10:10:25.722Z,6.97
2023-01-02T10:13:01.411Z,6.40
2023-01-02T10:15:30.417Z,6.53
2023-01-02T10:18:26.393Z,6.43
2023-01-02T10:21:03.491Z,6.63
2023-01-02T10:23:37.599Z,5.38
2023-01-02T10:26:07.665Z,5.57
2023-01-02T10:28:46.530Z,5.47
2023-01-02T10:31:49.084Z,5.15
2023-01-02T10:34:20.053Z,5.65
2023-01-02T10:36:48.686Z,5.95
2023-01-02T10:39:25.184Z,6.10
2023-01-02T10:41:59.180Z,5.85
2023-01-02T10:44:28.111Z,5.05
2023-01-02T10:46:55.817Z,4.88
2023-01-02T10:49:25.642Z,4.55
2023-01-02T10:52:03.515Z,4.35
2023-01-02T10:54:30.406Z,3.55
2023-01-02T10:56:57.780Z,3.60
2023-01-02T10:59:28.949Z,3.20
2023-01-02T11:01:58.539Z,2.90
2023-01-02T11:04:28.274Z,2.67
2023-01-02T11:07:00.456Z,2.58
2023-01-02T11:09:33.586Z,3.03
2023-01-02T11:12:13.919Z,2.90
2023-01-02T11:14:41.027Z,2.65
2023-01-02T11:17:17.326Z,2.60
2023-01-02T11:19:49.443Z,2.65
2023-01-02T11:22:20.184Z,2.72
2023-01-02T11:25:01.526Z,2.83
2023-01-02T11:27:56.667Z,2.88
2023-01-02T11:30:47.435Z,3.80
2023-01-02T11:33:14.328Z,2.88
2023-01-02T11:35:50.448Z,2.50
2023-01-02T11:38:28.979Z,2.65
2023-01-02T11:41:01.133Z,3.25
2023-01-02T11:43:48.670Z,4.03
2023-01-02T11:46:32.541Z,2.47
2023-01-02T11:49:23.449Z,2.53
2023-01-02T11:52:01.587Z,2.05
2023-01-02T11:54:44.345Z,1.77
2023-01-02T11:57:24.407Z,2.53
2023-01-02T11:59:55.365Z,2.10
2023-01-02T12:02:36.159Z,2.00
2023-01-02T12:05:12.917Z,2.33
2023-01-02T12:07:50.544Z,2.10
2023-01-02T12:10:54.177Z,3.17
2023-01-02T12:13:23.837Z,2.65
2023-01-02T12:16:04.060Z,2.92
2023-01-02T12:18:52.880Z,2.85
2023-01-02T12:21:45.987Z,1.95
2023-01-02T12:24:41.562Z,2.08
2023-01-02T12:27:13.696Z,2.00
2023-01-02T12:29:59.082Z,1.90
2023-01-02T12:32:50.748Z,2.20
2023-01-02T12:35:42.414Z,1.65
2023-01-02T12:38:14.993Z,3.05
2023-01-02T12:40:57.112Z,2.20
2023-01-02T12:43:42.016Z,2.47
2023-01-02T12:46:17.007Z,2.45
2023-01-02T12:49:12.498Z,2.30
2023-01-02T12:51:54.392Z,2.10
2023-01-02T12:54:31.556Z,2.13
2023-01-02T12:57:15.687Z,2.08
2023-01-02T13:00:03.861Z,2.05
2023-01-02T13:02:48.883Z,2.53
2023-01-02T13:05:20.663Z,2.10
2023-01-02T13:07:56.208Z,2.13
2023-01-02T13:10:27.646Z,2.58
2023-01-02T13:12:57.528Z,2.88
2023-01-02T13:15:40.449Z,2.42
2023-01-02T13:18:35.308Z,2.47
2023-01-02T13:21:12.959Z,2.45
2023-01-02T13:23:44.014Z,2.88
2023-01-02T13:26:15.603Z,2.83
2023-01-02T13:28:43.349Z,2.13
2023-01-02T13:31:44.780Z,2.35
2023-01-02T13:34:10.156Z,1.95
2023-01-02T13:36:36.996Z,2.13
2023-01-02T13:39:15.763Z,2.28
2023-01-02T13:42:19.655Z,2.55
2023-01-02T13:44:51.698Z,2.88
2023-01-02T13:47:34.462Z,3.58
2023-01-02T13:50:28.022Z,2.70
2023-01-02T13:53:09.874Z,3.15
2023-01-02T13:55:40.654Z,2.90
2023-01-02T13:58:50.549Z,2.70
2023-01-02T14:01:23.751Z,3.13
2023-01-02T14:04:19.525Z,3.10
2023-01-02T14:06:53.794Z,2.90
2023-01-02T14:09:23.063Z,3.50
2023-01-02T14:12:00.304Z,3.83
2023-01-02T14:14:30.177Z,3.40
2023-01-02T14:17:21.342Z,3.78
2023-01-02T14:20:21.346Z,4.35
2023-01-02T14:22:53.106Z,2.83
2023-01-02T14:25:21.558Z,2.60
2023-01-02T14:27:58.182Z,2.17
2023-01-02T14:30:37.488Z,2.33
2023-01-02T14:33:07.654Z,2.20
2023-01-02T14:35:52.787Z,2.08
2023-01-02T14:38:24.484Z,2.13
2023-01-02T14:40:52.457Z,1.98
2023-01-02T14:43:37.613Z,1.88
2023-01-02T14:46:04.647Z,3.33
2023-01-02T14:49:24.922Z,1.75
2023-01-02T14:52:01.126Z,1.95
2023-01-02T14:54:47.095Z,2.75
2023-01-02T14:59:53.563Z,2.22
2023-01-02T15:02:26.141Z,2.17
2023-01-02T15:04:57.243Z,2.13
2023-01-02T15:07:32.967Z,3.10
2023-01-02T15:10:16.418Z,2.42
2023-01-02T15:13:04.408Z,1.95
2023-01-02T15:15:47.070Z,2.10
2023-01-02T15:18:33.122Z,1.73
2023-01-02T15:21:08.071Z,2.22
2023-01-02T15:23:37.004Z,2.58
2023-01-02T15:26:33.010Z,2.40
2023-01-02T15:29:06.826Z,2.63
2023-01-02T15:31:40.017Z,2.20
2023-01-02T15:34:06.933Z,1.65
2023-01-02T15:36:40.788Z,2.40
2023-01-02T15:39:34.140Z,1.80
2023-01-02T15:42:07.994Z,1.98
2023-01-02T15:44:57.469Z,2.35
2023-01-02T15:47:28.127Z,2.13
2023-01-02T15:49:57.459Z,2.30
2023-01-02T15:52:28.790Z,2.03
2023-01-02T15:54:56.452Z,2.22
2023-01-02T15:57:28.864Z,2.15
2023-01-02T15:59:55.974Z,2.03
2023-01-02T16:02:44.222Z,2.75
2023-01-02T16:05:15.212Z,2.85
2023-01-02T16:07:48.635Z,2.70
2023-01-02T16:10:19.737Z,2.65
2023-01-02T16:13:27.963Z,2.05
2023-01-02T16:16:16.820Z,2.90
2023-01-02T16:18:47.051Z,2.38
2023-01-02T16:21:16.135Z,2.28
2023-01-02T16:23:54.959Z,2.25
2023-01-02T16:26:30.158Z,3.33
2023-01-02T16:28:57.711Z,2.92
2023-01-02T16:31:25.103Z,3.33
2023-01-02T16:33:52.115Z,3.22
2023-01-02T16:36:26.608Z,3.15
2023-01-02T16:39:02.378Z,2.50
2023-01-02T16:41:37.091Z,2.70
2023-01-02T16:44:15.498Z,2.67
2023-01-02T16:46:45.046Z,3.20
2023-01-02T16:49:16.236Z,3.05
2023-01-02T16:51:48.689Z,2.72
2023-01-02T16:54:17.335Z,2.20
2023-01-02T16:56:44.227Z,2.35
2023-01-02T16:59:11.388Z,2.15
2023-01-02T17:01:38.436Z,2.38
2023-01-02T17:04:05.430Z,2.22
2023-01-02T17:06:32.482Z,1.98
2023-01-02T17:08:59.379Z,2.35
2023-01-02T17:11:26.344Z,1.77
2023-01-02T17:13:54.521Z,3.28
2023-01-02T17:16:21.606Z,3.28
2023-01-02T17:18:48.640Z,2.17
2023-01-02T17:21:15.837Z,2.03
2023-01-02T17:23:42.761Z,2.72
2023-01-02T17:26:09.661Z,2.63
2023-01-02T17:28:36.950Z,4.32
2023-01-02T17:31:04.006Z,3.72
2023-01-02T17:33:31.047Z,3.42
2023-01-02T17:35:58.255Z,3.33
2023-01-02T17:38:25.435Z,2.85
2023-01-02T17:41:01.721Z,2.45
2023-01-02T17:43:28.638Z,2.63
2023-01-02T17:45:55.513Z,2.78
2023-01-02T17:48:25.070Z,2.40
2023-01-02T17:50:53.242Z,4.25
2023-01-02T17:53:20.156Z,3.67
2023-01-02T17:55:52.503Z,2.72
2023-01-02T17:58:39.712Z,2.08
2023-01-02T18:01:06.681Z,2.28
2023-01-02T18:03:33.617Z,3.03
2023-01-02T18:06:05.504Z,4.93
2023-01-02T18:08:32.782Z,4.32
2023-01-02T18:10:59.661Z,4.05
2023-01-02T18:13:29.587Z,4.07
2023-01-02T18:15:56.904Z,4.13
2023-01-02T18:18:24.125Z,3.85
2023-01-02T18:20:52.872Z,3.83
2023-01-02T18:23:19.703Z,3.65
2023-01-02T18:25:46.693Z,3.78
2023-01-02T18:28:23.883Z,4.03
2023-01-02T18:30:57.153Z,4.28
2023-01-02T18:33:26.271Z,3.70
2023-01-02T18:35:59.516Z,4.20
2023-01-02T18:38:36.697Z,4.38
2023-01-02T18:41:27.850Z,4.22
2023-01-02T18:44:04.799Z,3.47
2023-01-02T18:47:04.068Z,3.70
2023-01-02T18:49:26.774Z,4.40
2023-01-02T18:52:12.483Z,4.70
2023-01-02T18:54:45.327Z,6.38
2023-01-02T18:57:21.875Z,5.70
2023-01-02T18:59:52.381Z,5.60
2023-01-02T19:02:54.794Z,7.45
2023-01-02T19:05:31.597Z,7.45
2023-01-02T19:08:17.989Z,6.55
2023-01-02T19:10:51.227Z,6.70
2023-01-02T19:13:34.539Z,6.25
2023-01-02T19:16:19.957Z,6.13
2023-01-02T19:18:52.122Z,6.47
2023-01-02T19:21:28.437Z,5.97
2023-01-02T19:24:02.015Z,6.78
2023-01-02T19:26:44.498Z,7.03
2023-01-02T19:29:11.398Z,5.82
2023-01-02T19:31:51.508Z,5.97
2023-01-02T19:34:52.072Z,5.90
2023-01-02T19:37:34.200Z,5.38
2023-01-02T19:40:04.674Z,6.15
2023-01-02T19:42:32.188Z,5.70
2023-01-02T19:45:02.395Z,6.78
2023-01-02T19:47:31.872Z,6.60
2023-01-02T19:49:59.644Z,7.43
2023-01-02T19:52:28.471Z,7.25
2023-01-02T19:54:55.722Z,7.97
2023-01-02T19:57:23.927Z,8.30
2023-01-02T19:59:52.553Z,9.30
2023-01-02T20:02:22.294Z,9.15
2023-01-02T20:04:52.247Z,8.52
2023-01-02T20:07:20.261Z,9.52
2023-01-02T20:09:47.218Z,9.23
2023-01-02T20:12:49.782Z,9.43
2023-01-02T20:15:23.444Z,9.13
2023-01-02T20:17:51.954Z,9.18
2023-01-02T20:20:21.537Z,9.35
2023-01-02T20:22:51.550Z,8.73
2023-01-02T20:25:24.156Z,9.57
2023-01-02T20:27:54.679Z,10.13
2023-01-02T20:30:24.254Z,10.63
2023-01-02T20:32:52.914Z,10.07
2023-01-02T20:35:19.866Z,11.02
2023-01-02T20:37:47.947Z,10.18
2023-01-02T20:40:14.983Z,10.50
2023-01-02T20:42:42.110Z,9.38
2023-01-02T20:45:10.460Z,8.38
2023-01-02T20:47:37.471Z,8.75
2023-01-02T20:50:05.027Z,10.25
2023-01-02T20:52:31.960Z,9.50
2023-01-02T20:54:59.234Z,9.57
2023-01-02T20:57:26.472Z,11.00
2023-01-02T20:59:53.373Z,10.27
2023-01-02T21:02:20.819Z,9.27
2023-01-02T21:04:48.000Z,10.55
2023-01-02T21:07:15.115Z,10.15
2023-01-02T21:09:41.997Z,9.63
2023-01-02T21:12:28.968Z,9.77
2023-01-02T21:14:55.998Z,9.13
2023-01-02T21:17:22.969Z,9.60
2023-01-02T21:19:49.881Z,9.70
2023-01-02T21:22:16.736Z,9.55
2023-01-02T21:24:43.685Z,9.00
2023-01-02T21:27:13.143Z,10.60
2023-01-02T21:29:40.793Z,9.02
2023-01-02T21:32:07.667Z,9.80
2023-01-02T21:34:34.644Z,10.35
2023-01-02T21:37:01.578Z,10.35
2023-01-02T21:39:28.583Z,10.32
2023-01-02T21:42:13.947Z,9.88
2023-01-02T21:44:40.856Z,10.77
2023-01-02T21:47:08.083Z,9.70
2023-01-02T21:49:35.360Z,10.85
2023-01-02T21:52:02.326Z,10.57
2023-01-02T21:54:29.284Z,10.57
2023-01-02T21:56:56.440Z,10.35
2023-01-02T21:59:25.483Z,10.25
2023-01-02T22:01:53.646Z,9.82
2023-01-02T22:04:21.832Z,9.75
2023-01-02T22:07:29.456Z,9.82
2023-01-02T22:09:36.045Z,9.55
2023-01-02T22:12:02.966Z,10.98
2023-01-02T22:14:36.152Z,12.00
2023-01-02T22:17:09.092Z,11.75
2023-01-02T22:19:36.826Z,11.48
2023-01-02T22:22:04.662Z,11.70
2023-01-02T22:24:31.591Z,11.90
2023-01-02T22:27:03.736Z,11.45
2023-01-02T22:30:00.471Z,11.20
2023-01-02T22:32:19.425Z,11.52
2023-01-02T22:34:46.497Z,11.85
2023-01-02T22:37:21.783Z,12.10
2023-01-02T22:39:49.512Z,11.70
2023-01-02T22:43:00.305Z,11.57
2023-01-02T22:45:31.978Z,11.07
2023-01-02T22:48:03.669Z,11.93
2023-01-02T22:50:42.567Z,11.20
2023-01-02T22:53:22.997Z,11.05
2023-01-02T22:55:50.539Z,10.55
2023-01-02T22:58:17.850Z,10.77
2023-01-02T23:00:46.931Z,10.48
2023-01-02T23:03:15.823Z,10.20
2023-01-02T23:05:43.239Z,9.98
2023-01-02T23:08:10.267Z,10.10
2023-01-02T23:10:37.278Z,10.13
2023-01-02T23:13:04.234Z,9.30
2023-01-02T23:15:31.294Z,9.32
2023-01-02T23:18:16.556Z,9.32
2023-01-02T23:20:43.481Z,8.85
2023-01-02T23:23:10.364Z,9.52
2023-01-02T23:25:43.059Z,10.30
2023-01-02T23:28:20.461Z,9.25
2023-01-02T23:30:57.193Z,9.88
2023-01-02T23:33:24.068Z,9.70
2023-01-02T23:35:52.618Z,8.80
2023-01-02T23:38:20.146Z,8.43
2023-01-02T23:40:47.084Z,8.98
2023-01-02T23:43:13.940Z,8.68
2023-01-02T23:45:42.468Z,8.00
2023-01-02T23:48:09.338Z,9.00
2023-01-02T23:50:36.267Z,8.80
2023-01-02T23:53:03.168Z,9.10
2023-01-02T23:55:30.362Z,9.70
2023-01-02T23:57:57.181Z,9.60
